sensor_id;sensor_type;location;lat;lon;timestamp;P1;durP1;ratioP1;P2;durP2;ratioP2
20411;SDS011;10365;52.578;8.138;2023-09-19T00:02:16;12.45;;;3.50;;
20411;SDS011;10365;52.578;8.138;2023-09-19T00:04:41;10.35;;;3.30;;
20411;SDS011;10365;52.578;8.138;2023-09-19T00:07:08;9.68;;;3.63;;
20411;SDS011;10365;52.578;8.138;2023-09-19T00:09:34;10.00;;;3.25;;
20411;SDS011;10365;52.578;8.138;2023-09-19T00:12:03;6.32;;;2.78;;
20411;SDS011;10365;52.578;8.138;2023-09-19T00:14:30;8.35;;;3.30;;
20411;SDS011;10365;52.578;8.138;2023-09-19T00:16:55;7.13;;;3.03;;
20411;SDS011;10365;52.578;8.138;2023-09-19T00:19:20;7.43;;;3.30;;
20411;SDS011;10365;52.578;8.138;2023-09-19T00:21:46;6.25;;;2.88;;
20411;SDS011;10365;52.578;8.138;2023-09-19T00:24:12;8.23;;;3.28;;
20411;SDS011;10365;52.578;8.138;2023-09-19T00:26:39;8.95;;;3.15;;
20411;SDS011;10365;52.578;8.138;2023-09-19T00:29:04;9.65;;;3.33;;
20411;SDS011;10365;52.578;8.138;2023-09-19T00:31:29;14.02;;;3.45;;
20411;SDS011;10365;52.578;8.138;2023-09-19T00:33:55;9.02;;;2.60;;
20411;SDS011;10365;52.578;8.138;2023-09-19T00:36:22;12.05;;;3.15;;
20411;SDS011;10365;52.578;8.138;2023-09-19T00:38:48;10.82;;;2.97;;
20411;SDS011;10365;52.578;8.138;2023-09-19T00:41:13;13.15;;;2.70;;
20411;SDS011;10365;52.578;8.138;2023-09-19T00:43:38;12.55;;;2.90;;
20411;SDS011;10365;52.578;8.138;2023-09-19T00:46:05;8.20;;;2.97;;
20411;SDS011;10365;52.578;8.138;2023-09-19T00:48:31;11.35;;;2.75;;
20411;SDS011;10365;52.578;8.138;2023-09-19T00:51:02;11.57;;;3.20;;
20411;SDS011;10365;52.578;8.138;2023-09-19T00:53:28;14.40;;;3.28;;
20411;SDS011;10365;52.578;8.138;2023-09-19T00:55:55;7.80;;;2.92;;
20411;SDS011;10365;52.578;8.138;2023-09-19T00:58:21;9.88;;;2.83;;
20411;SDS011;10365;52.578;8.138;2023-09-19T01:00:49;12.45;;;3.47;;
20411;SDS011;10365;52.578;8.138;2023-09-19T01:03:16;11.35;;;3.00;;
20411;SDS011;10365;52.578;8.138;2023-09-19T01:05:43;11.38;;;2.90;;
20411;SDS011;10365;52.578;8.138;2023-09-19T01:08:08;13.85;;;3.08;;
20411;SDS011;10365;52.578;8.138;2023-09-19T01:10:36;7.55;;;2.85;;
20411;SDS011;10365;52.578;8.138;2023-09-19T01:13:22;12.73;;;2.88;;
20411;SDS011;10365;52.578;8.138;2023-09-19T01:23:17;16.42;;;3.22;;
20411;SDS011;10365;52.578;8.138;2023-09-19T01:25:50;15.73;;;2.95;;
20411;SDS011;10365;52.578;8.138;2023-09-19T01:28:30;13.73;;;3.25;;
20411;SDS011;10365;52.578;8.138;2023-09-19T01:30:58;18.02;;;3.50;;
20411;SDS011;10365;52.578;8.138;2023-09-19T01:33:26;14.88;;;3.28;;
20411;SDS011;10365;52.578;8.138;2023-09-19T01:35:52;13.65;;;3.35;;
20411;SDS011;10365;52.578;8.138;2023-09-19T01:38:18;10.95;;;2.97;;
20411;SDS011;10365;52.578;8.138;2023-09-19T01:40:47;13.98;;;3.25;;
20411;SDS011;10365;52.578;8.138;2023-09-19T01:43:21;12.73;;;2.80;;
20411;SDS011;10365;52.578;8.138;2023-09-19T01:46:09;17.30;;;3.50;;
20411;SDS011;10365;52.578;8.138;2023-09-19T01:48:40;12.75;;;3.00;;
20411;SDS011;10365;52.578;8.138;2023-09-19T01:51:11;9.68;;;2.00;;
20411;SDS011;10365;52.578;8.138;2023-09-19T01:56:04;11.82;;;2.22;;
20411;SDS011;10365;52.578;8.138;2023-09-19T02:01:02;7.47;;;2.40;;
20411;SDS011;10365;52.578;8.138;2023-09-19T02:03:29;6.97;;;1.73;;
20411;SDS011;10365;52.578;8.138;2023-09-19T02:05:56;7.80;;;2.08;;
20411;SDS011;10365;52.578;8.138;2023-09-19T02:08:21;8.27;;;2.30;;
20411;SDS011;10365;52.578;8.138;2023-09-19T02:10:49;9.13;;;2.08;;
20411;SDS011;10365;52.578;8.138;2023-09-19T02:13:18;13.85;;;2.85;;
20411;SDS011;10365;52.578;8.138;2023-09-19T02:15:44;7.75;;;2.00;;
20411;SDS011;10365;52.578;8.138;2023-09-19T02:18:10;12.38;;;2.50;;
20411;SDS011;10365;52.578;8.138;2023-09-19T02:20:35;14.52;;;2.70;;
20411;SDS011;10365;52.578;8.138;2023-09-19T02:23:00;7.43;;;2.45;;
20411;SDS011;10365;52.578;8.138;2023-09-19T02:25:28;10.52;;;2.35;;
20411;SDS011;10365;52.578;8.138;2023-09-19T02:27:53;12.35;;;2.53;;
20411;SDS011;10365;52.578;8.138;2023-09-19T02:30:19;10.82;;;2.38;;
20411;SDS011;10365;52.578;8.138;2023-09-19T02:32:46;9.60;;;2.30;;
20411;SDS011;10365;52.578;8.138;2023-09-19T02:35:11;11.07;;;2.20;;
20411;SDS011;10365;52.578;8.138;2023-09-19T02:37:37;11.02;;;2.10;;
20411;SDS011;10365;52.578;8.138;2023-09-19T02:40:03;7.85;;;2.28;;
20411;SDS011;10365;52.578;8.138;2023-09-19T02:42:31;8.10;;;1.80;;
20411;SDS011;10365;52.578;8.138;2023-09-19T02:44:57;9.70;;;2.30;;
20411;SDS011;10365;52.578;8.138;2023-09-19T02:47:22;11.48;;;2.47;;
20411;SDS011;10365;52.578;8.138;2023-09-19T02:49:48;14.05;;;2.63;;
20411;SDS011;10365;52.578;8.138;2023-09-19T02:52:13;11.93;;;2.30;;
20411;SDS011;10365;52.578;8.138;2023-09-19T02:54:39;10.25;;;1.83;;
20411;SDS011;10365;52.578;8.138;2023-09-19T02:57:05;15.05;;;2.40;;
20411;SDS011;10365;52.578;8.138;2023-09-19T02:59:31;10.38;;;2.05;;
20411;SDS011;10365;52.578;8.138;2023-09-19T03:01:57;7.05;;;2.17;;
20411;SDS011;10365;52.578;8.138;2023-09-19T03:04:22;6.57;;;1.83;;
20411;SDS011;10365;52.578;8.138;2023-09-19T03:06:48;9.95;;;2.10;;
20411;SDS011;10365;52.578;8.138;2023-09-19T03:09:16;13.25;;;2.20;;
20411;SDS011;10365;52.578;8.138;2023-09-19T03:11:42;7.45;;;1.98;;
20411;SDS011;10365;52.578;8.138;2023-09-19T03:14:08;13.80;;;2.28;;
20411;SDS011;10365;52.578;8.138;2023-09-19T03:16:35;11.13;;;2.40;;
20411;SDS011;10365;52.578;8.138;2023-09-19T03:19:02;9.00;;;2.00;;
20411;SDS011;10365;52.578;8.138;2023-09-19T03:21:30;13.45;;;1.90;;
20411;SDS011;10365;52.578;8.138;2023-09-19T03:23:55;9.43;;;2.33;;
20411;SDS011;10365;52.578;8.138;2023-09-19T03:26:21;11.00;;;2.25;;
20411;SDS011;10365;52.578;8.138;2023-09-19T03:28:47;9.40;;;2.20;;
20411;SDS011;10365;52.578;8.138;2023-09-19T03:31:12;9.00;;;2.42;;
20411;SDS011;10365;52.578;8.138;2023-09-19T03:33:38;10.07;;;2.67;;
20411;SDS011;10365;52.578;8.138;2023-09-19T03:36:04;12.70;;;2.20;;
20411;SDS011;10365;52.578;8.138;2023-09-19T03:38:30;11.65;;;1.73;;
20411;SDS011;10365;52.578;8.138;2023-09-19T03:40:57;12.35;;;2.35;;
20411;SDS011;10365;52.578;8.138;2023-09-19T03:43:22;11.43;;;2.15;;
20411;SDS011;10365;52.578;8.138;2023-09-19T03:45:47;11.20;;;2.10;;
20411;SDS011;10365;52.578;8.138;2023-09-19T03:48:14;13.05;;;2.03;;
20411;SDS011;10365;52.578;8.138;2023-09-19T03:50:40;9.70;;;1.85;;
20411;SDS011;10365;52.578;8.138;2023-09-19T03:53:05;12.90;;;1.98;;
20411;SDS011;10365;52.578;8.138;2023-09-19T03:55:32;9.65;;;2.20;;
20411;SDS011;10365;52.578;8.138;2023-09-19T03:58:00;9.20;;;2.13;;
20411;SDS011;10365;52.578;8.138;2023-09-19T04:00:26;8.88;;;1.85;;
20411;SDS011;10365;52.578;8.138;2023-09-19T04:02:52;9.73;;;1.88;;
20411;SDS011;10365;52.578;8.138;2023-09-19T04:05:17;11.02;;;2.13;;
20411;SDS011;10365;52.578;8.138;2023-09-19T04:07:44;11.38;;;3.05;;
20411;SDS011;10365;52.578;8.138;2023-09-19T04:10:10;13.02;;;2.13;;
20411;SDS011;10365;52.578;8.138;2023-09-19T04:12:36;15.52;;;2.60;;
20411;SDS011;10365;52.578;8.138;2023-09-19T04:15:02;14.02;;;2.15;;
20411;SDS011;10365;52.578;8.138;2023-09-19T04:17:28;13.02;;;2.45;;
20411;SDS011;10365;52.578;8.138;2023-09-19T04:19:54;11.10;;;2.00;;
20411;SDS011;10365;52.578;8.138;2023-09-19T04:22:19;14.73;;;2.67;;
20411;SDS011;10365;52.578;8.138;2023-09-19T04:24:46;12.63;;;2.80;;
20411;SDS011;10365;52.578;8.138;2023-09-19T04:27:11;12.15;;;2.83;;
20411;SDS011;10365;52.578;8.138;2023-09-19T04:29:39;11.90;;;3.05;;
20411;SDS011;10365;52.578;8.138;2023-09-19T04:32:06;10.23;;;2.80;;
20411;SDS011;10365;52.578;8.138;2023-09-19T04:34:32;13.18;;;3.13;;
20411;SDS011;10365;52.578;8.138;2023-09-19T04:36:59;9.50;;;2.63;;
20411;SDS011;10365;52.578;8.138;2023-09-19T04:39:25;11.48;;;2.92;;
20411;SDS011;10365;52.578;8.138;2023-09-19T04:41:51;16.65;;;2.65;;
20411;SDS011;10365;52.578;8.138;2023-09-19T04:44:16;9.93;;;3.08;;
20411;SDS011;10365;52.578;8.138;2023-09-19T04:46:41;15.70;;;3.15;;
20411;SDS011;10365;52.578;8.138;2023-09-19T04:49:07;10.45;;;3.42;;
20411;SDS011;10365;52.578;8.138;2023-09-19T04:51:32;12.27;;;3.35;;
20411;SDS011;10365;52.578;8.138;2023-09-19T04:53:59;12.95;;;3.20;;
20411;SDS011;10365;52.578;8.138;2023-09-19T04:56:25;12.52;;;3.33;;
20411;SDS011;10365;52.578;8.138;2023-09-19T04:58:50;14.70;;;3.33;;
20411;SDS011;10365;52.578;8.138;2023-09-19T05:01:15;12.57;;;3.53;;
20411;SDS011;10365;52.578;8.138;2023-09-19T05:03:41;14.48;;;3.20;;
20411;SDS011;10365;52.578;8.138;2023-09-19T05:06:07;15.75;;;3.28;;
20411;SDS011;10365;52.578;8.138;2023-09-19T05:08:32;15.77;;;3.15;;
20411;SDS011;10365;52.578;8.138;2023-09-19T05:10:57;19.40;;;3.15;;
20411;SDS011;10365;52.578;8.138;2023-09-19T05:13:23;12.27;;;2.22;;
20411;SDS011;10365;52.578;8.138;2023-09-19T05:15:49;11.27;;;2.63;;
20411;SDS011;10365;52.578;8.138;2023-09-19T05:18:15;17.15;;;3.22;;
20411;SDS011;10365;52.578;8.138;2023-09-19T05:20:40;12.05;;;2.88;;
20411;SDS011;10365;52.578;8.138;2023-09-19T05:23:06;15.48;;;2.95;;
20411;SDS011;10365;52.578;8.138;2023-09-19T05:25:34;13.40;;;2.63;;
20411;SDS011;10365;52.578;8.138;2023-09-19T05:28:03;16.00;;;2.83;;
20411;SDS011;10365;52.578;8.138;2023-09-19T05:30:31;11.55;;;2.65;;
20411;SDS011;10365;52.578;8.138;2023-09-19T05:32:56;15.98;;;3.60;;
20411;SDS011;10365;52.578;8.138;2023-09-19T05:35:22;13.90;;;2.70;;
20411;SDS011;10365;52.578;8.138;2023-09-19T05:37:49;13.32;;;2.10;;
20411;SDS011;10365;52.578;8.138;2023-09-19T05:40:16;11.80;;;2.45;;
20411;SDS011;10365;52.578;8.138;2023-09-19T05:42:42;19.98;;;3.90;;
20411;SDS011;10365;52.578;8.138;2023-09-19T05:45:09;23.02;;;3.00;;
20411;SDS011;10365;52.578;8.138;2023-09-19T05:47:37;14.15;;;2.50;;
20411;SDS011;10365;52.578;8.138;2023-09-19T05:50:02;14.95;;;2.28;;
20411;SDS011;10365;52.578;8.138;2023-09-19T05:52:28;12.48;;;2.53;;
20411;SDS011;10365;52.578;8.138;2023-09-19T05:54:53;14.65;;;2.17;;
20411;SDS011;10365;52.578;8.138;2023-09-19T05:57:19;18.80;;;2.30;;
20411;SDS011;10365;52.578;8.138;2023-09-19T05:59:45;14.57;;;2.38;;
20411;SDS011;10365;52.578;8.138;2023-09-19T06:02:10;11.98;;;2.00;;
20411;SDS011;10365;52.578;8.138;2023-09-19T06:04:37;9.00;;;1.67;;
20411;SDS011;10365;52.578;8.138;2023-09-19T06:07:06;12.50;;;2.17;;
20411;SDS011;10365;52.578;8.138;2023-09-19T06:09:31;13.80;;;2.00;;
20411;SDS011;10365;52.578;8.138;2023-09-19T06:11:57;9.27;;;2.08;;
20411;SDS011;10365;52.578;8.138;2023-09-19T06:14:22;15.52;;;2.65;;
20411;SDS011;10365;52.578;8.138;2023-09-19T06:16:49;10.70;;;2.08;;
20411;SDS011;10365;52.578;8.138;2023-09-19T06:19:15;12.93;;;2.22;;
20411;SDS011;10365;52.578;8.138;2023-09-19T06:21:40;10.80;;;2.33;;
20411;SDS011;10365;52.578;8.138;2023-09-19T06:24:05;12.95;;;1.83;;
20411;SDS011;10365;52.578;8.138;2023-09-19T06:26:31;16.95;;;1.88;;
20411;SDS011;10365;52.578;8.138;2023-09-19T06:28:57;14.82;;;2.53;;
20411;SDS011;10365;52.578;8.138;2023-09-19T06:31:24;8.13;;;1.75;;
20411;SDS011;10365;52.578;8.138;2023-09-19T06:33:51;9.55;;;2.28;;
20411;SDS011;10365;52.578;8.138;2023-09-19T06:36:16;13.63;;;2.63;;
20411;SDS011;10365;52.578;8.138;2023-09-19T06:38:42;10.45;;;1.98;;
20411;SDS011;10365;52.578;8.138;2023-09-19T06:41:08;8.55;;;1.70;;
20411;SDS011;10365;52.578;8.138;2023-09-19T06:43:33;8.57;;;2.00;;
20411;SDS011;10365;52.578;8.138;2023-09-19T06:46:02;12.70;;;2.38;;
20411;SDS011;10365;52.578;8.138;2023-09-19T06:48:28;11.73;;;2.08;;
20411;SDS011;10365;52.578;8.138;2023-09-19T06:50:55;11.32;;;1.67;;
20411;SDS011;10365;52.578;8.138;2023-09-19T06:53:20;14.45;;;2.03;;
20411;SDS011;10365;52.578;8.138;2023-09-19T06:55:45;9.65;;;1.98;;
20411;SDS011;10365;52.578;8.138;2023-09-19T06:58:12;15.70;;;1.40;;
20411;SDS011;10365;52.578;8.138;2023-09-19T07:00:38;10.15;;;1.85;;
20411;SDS011;10365;52.578;8.138;2023-09-19T07:03:04;10.63;;;1.52;;
20411;SDS011;10365;52.578;8.138;2023-09-19T07:05:33;10.23;;;1.48;;
20411;SDS011;10365;52.578;8.138;2023-09-19T07:07:58;13.60;;;2.03;;
20411;SDS011;10365;52.578;8.138;2023-09-19T07:10:24;10.15;;;1.55;;
20411;SDS011;10365;52.578;8.138;2023-09-19T07:13:00;7.45;;;1.40;;
20411;SDS011;10365;52.578;8.138;2023-09-19T07:15:26;11.90;;;1.70;;
20411;SDS011;10365;52.578;8.138;2023-09-19T07:17:52;10.23;;;2.47;;
20411;SDS011;10365;52.578;8.138;2023-09-19T07:20:18;17.92;;;2.45;;
20411;SDS011;10365;52.578;8.138;2023-09-19T07:22:44;15.07;;;1.70;;
20411;SDS011;10365;52.578;8.138;2023-09-19T07:25:09;12.73;;;1.95;;
20411;SDS011;10365;52.578;8.138;2023-09-19T07:27:34;8.93;;;2.05;;
20411;SDS011;10365;52.578;8.138;2023-09-19T07:29:59;9.52;;;2.15;;
20411;SDS011;10365;52.578;8.138;2023-09-19T07:32:25;12.00;;;1.67;;
20411;SDS011;10365;52.578;8.138;2023-09-19T07:34:50;11.45;;;1.23;;
20411;SDS011;10365;52.578;8.138;2023-09-19T07:37:15;7.53;;;1.90;;
20411;SDS011;10365;52.578;8.138;2023-09-19T07:39:41;11.77;;;1.95;;
20411;SDS011;10365;52.578;8.138;2023-09-19T07:42:06;8.82;;;1.67;;
20411;SDS011;10365;52.578;8.138;2023-09-19T07:44:32;7.05;;;1.60;;
20411;SDS011;10365;52.578;8.138;2023-09-19T07:46:57;8.63;;;1.75;;
20411;SDS011;10365;52.578;8.138;2023-09-19T07:49:22;9.50;;;1.65;;
20411;SDS011;10365;52.578;8.138;2023-09-19T07:51:48;6.43;;;1.92;;
20411;SDS011;10365;52.578;8.138;2023-09-19T07:54:13;10.55;;;1.95;;
20411;SDS011;10365;52.578;8.138;2023-09-19T07:56:40;12.65;;;2.00;;
20411;SDS011;10365;52.578;8.138;2023-09-19T07:59:05;7.88;;;1.27;;
20411;SDS011;10365;52.578;8.138;2023-09-19T08:01:30;8.38;;;1.65;;
20411;SDS011;10365;52.578;8.138;2023-09-19T08:03:58;8.75;;;1.75;;
20411;SDS011;10365;52.578;8.138;2023-09-19T08:06:23;14.07;;;1.80;;
20411;SDS011;10365;52.578;8.138;2023-09-19T08:08:52;8.60;;;2.08;;
20411;SDS011;10365;52.578;8.138;2023-09-19T08:11:19;9.27;;;2.05;;
20411;SDS011;10365;52.578;8.138;2023-09-19T08:13:46;5.85;;;1.75;;
20411;SDS011;10365;52.578;8.138;2023-09-19T08:16:14;12.60;;;1.70;;
20411;SDS011;10365;52.578;8.138;2023-09-19T08:18:47;12.02;;;2.05;;
20411;SDS011;10365;52.578;8.138;2023-09-19T08:21:13;8.63;;;2.03;;
20411;SDS011;10365;52.578;8.138;2023-09-19T08:23:39;5.43;;;1.70;;
20411;SDS011;10365;52.578;8.138;2023-09-19T08:26:05;8.23;;;1.83;;
20411;SDS011;10365;52.578;8.138;2023-09-19T08:28:34;12.88;;;2.30;;
20411;SDS011;10365;52.578;8.138;2023-09-19T08:31:06;8.95;;;1.70;;
20411;SDS011;10365;52.578;8.138;2023-09-19T08:33:32;9.32;;;1.40;;
20411;SDS011;10365;52.578;8.138;2023-09-19T08:35:58;6.55;;;1.48;;
20411;SDS011;10365;52.578;8.138;2023-09-19T08:38:23;10.32;;;1.98;;
20411;SDS011;10365;52.578;8.138;2023-09-19T08:40:48;7.55;;;1.52;;
20411;SDS011;10365;52.578;8.138;2023-09-19T08:43:14;13.00;;;1.70;;
20411;SDS011;10365;52.578;8.138;2023-09-19T08:45:40;11.25;;;1.80;;
20411;SDS011;10365;52.578;8.138;2023-09-19T08:50:31;9.10;;;1.42;;
20411;SDS011;10365;52.578;8.138;2023-09-19T08:53:02;10.23;;;3.05;;
20411;SDS011;10365;52.578;8.138;2023-09-19T08:55:30;9.55;;;1.70;;
20411;SDS011;10365;52.578;8.138;2023-09-19T08:58:14;6.22;;;1.20;;
20411;SDS011;10365;52.578;8.138;2023-09-19T09:00:44;10.95;;;1.35;;
20411;SDS011;10365;52.578;8.138;2023-09-19T09:03:11;7.85;;;1.25;;
20411;SDS011;10365;52.578;8.138;2023-09-19T09:05:38;7.00;;;1.80;;
20411;SDS011;10365;52.578;8.138;2023-09-19T09:08:07;7.55;;;1.55;;
20411;SDS011;10365;52.578;8.138;2023-09-19T09:10:32;8.88;;;1.63;;
20411;SDS011;10365;52.578;8.138;2023-09-19T09:12:58;9.90;;;2.05;;
20411;SDS011;10365;52.578;8.138;2023-09-19T09:15:23;10.10;;;1.75;;
20411;SDS011;10365;52.578;8.138;2023-09-19T09:17:50;12.45;;;2.35;;
20411;SDS011;10365;52.578;8.138;2023-09-19T09:20:16;9.05;;;2.25;;
20411;SDS011;10365;52.578;8.138;2023-09-19T09:22:51;10.95;;;1.80;;
20411;SDS011;10365;52.578;8.138;2023-09-19T09:25:18;9.75;;;1.50;;
20411;SDS011;10365;52.578;8.138;2023-09-19T09:28:02;8.38;;;1.15;;
20411;SDS011;10365;52.578;8.138;2023-09-19T09:30:36;7.55;;;1.60;;
20411;SDS011;10365;52.578;8.138;2023-09-19T09:33:12;6.95;;;1.65;;
20411;SDS011;10365;52.578;8.138;2023-09-19T09:38:43;11.40;;;2.17;;
20411;SDS011;10365;52.578;8.138;2023-09-19T09:41:10;9.32;;;1.83;;
20411;SDS011;10365;52.578;8.138;2023-09-19T09:43:40;9.02;;;1.98;;
20411;SDS011;10365;52.578;8.138;2023-09-19T09:51:33;11.52;;;1.80;;
20411;SDS011;10365;52.578;8.138;2023-09-19T09:54:11;8.25;;;1.90;;
20411;SDS011;10365;52.578;8.138;2023-09-19T09:56:56;13.68;;;1.95;;
20411;SDS011;10365;52.578;8.138;2023-09-19T10:02:09;14.15;;;2.22;;
20411;SDS011;10365;52.578;8.138;2023-09-19T10:04:38;12.18;;;2.08;;
20411;SDS011;10365;52.578;8.138;2023-09-19T10:07:26;7.05;;;2.00;;
20411;SDS011;10365;52.578;8.138;2023-09-19T10:09:58;9.13;;;1.70;;
20411;SDS011;10365;52.578;8.138;2023-09-19T10:12:31;10.07;;;2.10;;
20411;SDS011;10365;52.578;8.138;2023-09-19T10:14:56;11.32;;;1.77;;
20411;SDS011;10365;52.578;8.138;2023-09-19T10:17:24;11.57;;;2.20;;
20411;SDS011;10365;52.578;8.138;2023-09-19T10:19:55;8.77;;;2.05;;
20411;SDS011;10365;52.578;8.138;2023-09-19T10:22:23;8.43;;;1.70;;
20411;SDS011;10365;52.578;8.138;2023-09-19T10:24:50;10.00;;;1.95;;
20411;SDS011;10365;52.578;8.138;2023-09-19T10:27:21;8.10;;;1.77;;
20411;SDS011;10365;52.578;8.138;2023-09-19T10:29:50;8.82;;;2.00;;
20411;SDS011;10365;52.578;8.138;2023-09-19T10:32:16;12.15;;;1.90;;
20411;SDS011;10365;52.578;8.138;2023-09-19T10:34:47;8.60;;;1.50;;
20411;SDS011;10365;52.578;8.138;2023-09-19T10:37:15;11.13;;;1.98;;
20411;SDS011;10365;52.578;8.138;2023-09-19T10:39:40;10.55;;;1.73;;
20411;SDS011;10365;52.578;8.138;2023-09-19T10:42:07;7.65;;;1.52;;
20411;SDS011;10365;52.578;8.138;2023-09-19T10:44:35;8.05;;;1.80;;
20411;SDS011;10365;52.578;8.138;2023-09-19T10:47:03;10.77;;;1.95;;
20411;SDS011;10365;52.578;8.138;2023-09-19T10:49:31;6.53;;;1.40;;
20411;SDS011;10365;52.578;8.138;2023-09-19T10:51:57;5.20;;;1.33;;
20411;SDS011;10365;52.578;8.138;2023-09-19T10:54:26;5.68;;;1.55;;
20411;SDS011;10365;52.578;8.138;2023-09-19T10:56:53;9.00;;;1.77;;
20411;SDS011;10365;52.578;8.138;2023-09-19T10:59:19;12.13;;;1.88;;
20411;SDS011;10365;52.578;8.138;2023-09-19T11:01:49;9.60;;;2.10;;
20411;SDS011;10365;52.578;8.138;2023-09-19T11:04:32;5.72;;;1.40;;
20411;SDS011;10365;52.578;8.138;2023-09-19T11:09:25;7.85;;;1.88;;
20411;SDS011;10365;52.578;8.138;2023-09-19T11:12:07;7.82;;;2.13;;
20411;SDS011;10365;52.578;8.138;2023-09-19T11:14:37;6.00;;;1.50;;
20411;SDS011;10365;52.578;8.138;2023-09-19T11:30:28;7.85;;;1.80;;
20411;SDS011;10365;52.578;8.138;2023-09-19T11:43:50;11.13;;;1.90;;
20411;SDS011;10365;52.578;8.138;2023-09-19T11:46:16;7.38;;;2.17;;
20411;SDS011;10365;52.578;8.138;2023-09-19T11:48:47;7.82;;;2.00;;
20411;SDS011;10365;52.578;8.138;2023-09-19T11:51:14;11.88;;;1.83;;
20411;SDS011;10365;52.578;8.138;2023-09-19T11:53:51;9.40;;;2.30;;
20411;SDS011;10365;52.578;8.138;2023-09-19T11:56:18;7.93;;;1.70;;
20411;SDS011;10365;52.578;8.138;2023-09-19T11:58:45;10.02;;;1.98;;
20411;SDS011;10365;52.578;8.138;2023-09-19T12:01:14;10.70;;;2.42;;
20411;SDS011;10365;52.578;8.138;2023-09-19T12:03:45;13.13;;;2.20;;
20411;SDS011;10365;52.578;8.138;2023-09-19T12:06:13;8.93;;;1.92;;
20411;SDS011;10365;52.578;8.138;2023-09-19T12:08:40;8.73;;;1.45;;
20411;SDS011;10365;52.578;8.138;2023-09-19T12:11:08;8.95;;;1.50;;
20411;SDS011;10365;52.578;8.138;2023-09-19T12:13:40;9.15;;;1.90;;
20411;SDS011;10365;52.578;8.138;2023-09-19T12:18:40;7.47;;;1.92;;
20411;SDS011;10365;52.578;8.138;2023-09-19T12:21:07;9.90;;;1.77;;
20411;SDS011;10365;52.578;8.138;2023-09-19T12:23:37;10.93;;;2.17;;
20411;SDS011;10365;52.578;8.138;2023-09-19T12:26:06;11.10;;;1.65;;
20411;SDS011;10365;52.578;8.138;2023-09-19T12:28:40;5.78;;;1.95;;
20411;SDS011;10365;52.578;8.138;2023-09-19T12:31:07;9.48;;;2.13;;
20411;SDS011;10365;52.578;8.138;2023-09-19T12:33:33;7.97;;;1.48;;
20411;SDS011;10365;52.578;8.138;2023-09-19T12:36:00;7.10;;;1.77;;
20411;SDS011;10365;52.578;8.138;2023-09-19T12:38:28;8.07;;;2.30;;
20411;SDS011;10365;52.578;8.138;2023-09-19T12:40:57;7.70;;;1.60;;
20411;SDS011;10365;52.578;8.138;2023-09-19T12:43:25;12.07;;;2.05;;
20411;SDS011;10365;52.578;8.138;2023-09-19T12:45:51;10.82;;;1.88;;
20411;SDS011;10365;52.578;8.138;2023-09-19T12:51:07;8.57;;;1.92;;
20411;SDS011;10365;52.578;8.138;2023-09-19T12:53:36;10.50;;;2.38;;
20411;SDS011;10365;52.578;8.138;2023-09-19T12:56:05;11.50;;;1.98;;
20411;SDS011;10365;52.578;8.138;2023-09-19T12:58:34;6.65;;;1.40;;
20411;SDS011;10365;52.578;8.138;2023-09-19T13:01:00;9.30;;;1.60;;
20411;SDS011;10365;52.578;8.138;2023-09-19T13:03:27;13.05;;;1.85;;
20411;SDS011;10365;52.578;8.138;2023-09-19T13:06:00;9.02;;;1.90;;
20411;SDS011;10365;52.578;8.138;2023-09-19T13:08:28;8.77;;;1.70;;
20411;SDS011;10365;52.578;8.138;2023-09-19T13:10:59;11.82;;;2.42;;
20411;SDS011;10365;52.578;8.138;2023-09-19T13:13:24;9.55;;;1.70;;
20411;SDS011;10365;52.578;8.138;2023-09-19T13:15:53;7.35;;;1.83;;
20411;SDS011;10365;52.578;8.138;2023-09-19T13:18:19;11.15;;;1.80;;
20411;SDS011;10365;52.578;8.138;2023-09-19T13:21:05;10.85;;;2.03;;
20411;SDS011;10365;52.578;8.138;2023-09-19T13:23:30;6.38;;;1.63;;
20411;SDS011;10365;52.578;8.138;2023-09-19T13:25:56;10.77;;;1.58;;
20411;SDS011;10365;52.578;8.138;2023-09-19T13:28:21;7.00;;;1.60;;
20411;SDS011;10365;52.578;8.138;2023-09-19T13:30:47;6.97;;;1.73;;
20411;SDS011;10365;52.578;8.138;2023-09-19T13:33:13;9.63;;;1.55;;
20411;SDS011;10365;52.578;8.138;2023-09-19T13:35:44;10.05;;;2.00;;
20411;SDS011;10365;52.578;8.138;2023-09-19T13:38:09;8.55;;;1.88;;
20411;SDS011;10365;52.578;8.138;2023-09-19T13:40:38;7.70;;;1.63;;
20411;SDS011;10365;52.578;8.138;2023-09-19T13:43:04;12.73;;;1.90;;
20411;SDS011;10365;52.578;8.138;2023-09-19T13:45:31;5.70;;;1.33;;
20411;SDS011;10365;52.578;8.138;2023-09-19T13:47:57;10.38;;;2.08;;
20411;SDS011;10365;52.578;8.138;2023-09-19T13:50:24;9.52;;;1.48;;
20411;SDS011;10365;52.578;8.138;2023-09-19T13:52:50;6.30;;;1.30;;
20411;SDS011;10365;52.578;8.138;2023-09-19T13:55:19;9.10;;;2.17;;
20411;SDS011;10365;52.578;8.138;2023-09-19T13:57:48;9.00;;;1.38;;
20411;SDS011;10365;52.578;8.138;2023-09-19T14:00:15;7.10;;;1.20;;
20411;SDS011;10365;52.578;8.138;2023-09-19T14:02:41;7.40;;;1.70;;
20411;SDS011;10365;52.578;8.138;2023-09-19T14:05:09;10.93;;;1.42;;
20411;SDS011;10365;52.578;8.138;2023-09-19T14:07:37;5.30;;;1.30;;
20411;SDS011;10365;52.578;8.138;2023-09-19T14:10:02;10.27;;;1.90;;
20411;SDS011;10365;52.578;8.138;2023-09-19T14:12:29;5.55;;;1.40;;
20411;SDS011;10365;52.578;8.138;2023-09-19T14:14:55;8.10;;;1.60;;
20411;SDS011;10365;52.578;8.138;2023-09-19T14:17:21;7.82;;;1.60;;
20411;SDS011;10365;52.578;8.138;2023-09-19T14:19:46;5.40;;;1.40;;
20411;SDS011;10365;52.578;8.138;2023-09-19T14:22:12;9.35;;;1.70;;
20411;SDS011;10365;52.578;8.138;2023-09-19T14:24:39;9.35;;;1.60;;
20411;SDS011;10365;52.578;8.138;2023-09-19T14:27:06;6.07;;;1.45;;
20411;SDS011;10365;52.578;8.138;2023-09-19T14:29:34;10.60;;;2.03;;
20411;SDS011;10365;52.578;8.138;2023-09-19T14:31:59;7.13;;;1.52;;
20411;SDS011;10365;52.578;8.138;2023-09-19T14:34:24;6.90;;;1.42;;
20411;SDS011;10365;52.578;8.138;2023-09-19T14:36:50;5.30;;;1.30;;
20411;SDS011;10365;52.578;8.138;2023-09-19T14:39:15;10.95;;;1.30;;
20411;SDS011;10365;52.578;8.138;2023-09-19T14:41:40;8.30;;;1.40;;
20411;SDS011;10365;52.578;8.138;2023-09-19T14:44:06;10.02;;;1.50;;
20411;SDS011;10365;52.578;8.138;2023-09-19T14:46:31;10.93;;;3.17;;
20411;SDS011;10365;52.578;8.138;2023-09-19T14:48:56;6.65;;;1.50;;
20411;SDS011;10365;52.578;8.138;2023-09-19T14:51:25;6.72;;;1.50;;
20411;SDS011;10365;52.578;8.138;2023-09-19T14:53:50;6.32;;;1.33;;
20411;SDS011;10365;52.578;8.138;2023-09-19T14:56:15;8.02;;;1.60;;
20411;SDS011;10365;52.578;8.138;2023-09-19T14:58:43;8.95;;;1.63;;
20411;SDS011;10365;52.578;8.138;2023-09-19T15:01:09;6.18;;;1.45;;
20411;SDS011;10365;52.578;8.138;2023-09-19T15:03:39;10.48;;;1.48;;
20411;SDS011;10365;52.578;8.138;2023-09-19T15:06:07;9.85;;;2.00;;
20411;SDS011;10365;52.578;8.138;2023-09-19T15:08:34;9.15;;;2.05;;
20411;SDS011;10365;52.578;8.138;2023-09-19T15:11:18;8.32;;;1.73;;
20411;SDS011;10365;52.578;8.138;2023-09-19T15:13:45;6.55;;;1.50;;
20411;SDS011;10365;52.578;8.138;2023-09-19T15:16:10;7.75;;;1.40;;
20411;SDS011;10365;52.578;8.138;2023-09-19T15:18:39;6.97;;;1.48;;
20411;SDS011;10365;52.578;8.138;2023-09-19T15:21:06;5.97;;;1.20;;
20411;SDS011;10365;52.578;8.138;2023-09-19T15:23:32;8.90;;;1.67;;
20411;SDS011;10365;52.578;8.138;2023-09-19T15:25:59;5.10;;;1.20;;
20411;SDS011;10365;52.578;8.138;2023-09-19T15:28:26;7.80;;;1.58;;
20411;SDS011;10365;52.578;8.138;2023-09-19T15:30:57;5.72;;;1.15;;
20411;SDS011;10365;52.578;8.138;2023-09-19T15:33:22;9.40;;;1.83;;
20411;SDS011;10365;52.578;8.138;2023-09-19T15:35:47;4.47;;;1.25;;
20411;SDS011;10365;52.578;8.138;2023-09-19T15:38:13;7.43;;;1.48;;
20411;SDS011;10365;52.578;8.138;2023-09-19T15:40:45;4.78;;;1.27;;